YPGV/GOV METAR and TAF weather

Enter ICAO airport designator
Station Type Date Time Source
YPGV METAR 2020/03/28 07:30 UTC NOAA

YPGV 280730Z AUTO 14010KT 9999 // BKN025 BKN030 30/24 Q1007


Station Type Date Time Source
YPGV Decoded METAR 2020/03/28 07:30 UTC NOAA

Station name not available
Mar 28, 2020 - 03:30 AM EDT / 2020.03.28 0730 UTC
Wind: from the SE (140 degrees) at 12 MPH (10 KT):0
Visibility: greater than 7 mile(s):0
Sky conditions: mostly cloudy
Temperature: 86 F (30 C)
Heat index: 95.0 F (35.0 C):1
Dew Point: 75 F (24 C)
Relative Humidity: 70%
Pressure (altimeter): 29.74 in. Hg (1007 hPa)
ob: YPGV 280730Z AUTO 14010KT 9999 // BKN025 BKN030 30/24 Q1007
cycle: 7

Station Type Date Time Source
YPGV TAF 2020/03/28 08:00 UTC NOAA

TAF YPGV 280601Z 2808/2820 12010KT 9999 -SHRA SCT020 SCT035
FM280900 14007KT 9999 SCT020 INTER 2808/2811 4000 SHRA BKN013

Example: see airport list